createdAt,value
2019-02-21T00:00:23.912Z,13.00
2019-02-21T00:02:47.198Z,12.50
2019-02-21T00:05:17.769Z,12.43
2019-02-21T00:07:48.270Z,12.20
2019-02-21T00:10:18.726Z,12.27
2019-02-21T00:12:49.255Z,13.10
2019-02-21T00:15:19.732Z,13.03
2019-02-21T00:17:50.175Z,12.93
2019-02-21T00:20:20.685Z,13.20
2019-02-21T00:22:51.157Z,12.20
2019-02-21T00:25:21.655Z,12.67
2019-02-21T00:27:52.131Z,12.50
2019-02-21T00:30:22.598Z,13.03
2019-02-21T00:32:53.107Z,12.50
2019-02-21T00:35:23.611Z,12.40
2019-02-21T00:37:54.074Z,12.27
2019-02-21T00:40:24.592Z,11.80
2019-02-21T00:42:55.052Z,12.83
2019-02-21T00:45:25.517Z,11.80
2019-02-21T00:47:56.029Z,11.93
2019-02-21T00:50:26.535Z,11.87
2019-02-21T00:52:57.005Z,11.83
2019-02-21T00:55:27.983Z,11.93
2019-02-21T00:57:58.959Z,11.73
2019-02-21T01:00:29.487Z,11.87
2019-02-21T01:02:59.938Z,11.40
2019-02-21T01:05:30.464Z,11.50
2019-02-21T01:08:00.919Z,12.40
2019-02-21T01:10:31.476Z,11.30
2019-02-21T01:13:01.938Z,11.90
2019-02-21T01:15:32.444Z,11.40
2019-02-21T01:18:02.912Z,11.90
2019-02-21T01:20:33.422Z,12.00
2019-02-21T01:23:03.917Z,11.50
2019-02-21T01:25:34.396Z,11.77
2019-02-21T01:28:05.101Z,12.67
2019-02-21T01:30:35.824Z,11.43
2019-02-21T01:33:06.491Z,12.30
2019-02-21T01:35:36.965Z,12.00
2019-02-21T01:38:07.473Z,12.73
2019-02-21T01:40:37.948Z,11.30
2019-02-21T01:43:08.451Z,11.73
2019-02-21T01:45:38.935Z,11.90
2019-02-21T01:48:09.395Z,12.80
2019-02-21T01:50:39.899Z,12.73
2019-02-21T01:53:10.356Z,12.20
2019-02-21T01:55:40.881Z,12.70
2019-02-21T01:58:11.487Z,13.03
2019-02-21T02:00:42.000Z,13.10
2019-02-21T02:03:12.611Z,13.43
2019-02-21T02:05:43.070Z,13.27
2019-02-21T02:08:13.591Z,13.73
2019-02-21T02:10:44.103Z,12.60
2019-02-21T02:13:24.226Z,13.63
2019-02-21T02:15:46.902Z,13.97
2019-02-21T02:18:17.505Z,12.83
2019-02-21T02:20:47.971Z,14.43
2019-02-21T02:23:18.448Z,13.47
2019-02-21T02:25:48.957Z,13.03
2019-02-21T02:28:19.429Z,14.30
2019-02-21T02:30:49.894Z,14.37
2019-02-21T02:33:20.394Z,13.83
2019-02-21T02:35:50.857Z,13.80
2019-02-21T02:38:21.359Z,14.47
2019-02-21T02:40:51.839Z,14.27
2019-02-21T02:43:22.346Z,13.77
2019-02-21T02:45:52.840Z,13.33
2019-02-21T02:48:23.293Z,13.23
2019-02-21T02:50:53.804Z,12.83
2019-02-21T02:53:24.282Z,12.70
2019-02-21T02:55:54.764Z,13.00
2019-02-21T02:58:25.230Z,12.70
2019-02-21T03:00:55.745Z,14.23
2019-02-21T03:03:26.210Z,15.13
2019-02-21T03:05:56.725Z,15.17
2019-02-21T03:08:27.196Z,15.50
2019-02-21T03:10:57.662Z,15.53
2019-02-21T03:13:28.180Z,15.60
2019-02-21T03:15:58.741Z,15.60
2019-02-21T03:18:29.242Z,13.67
2019-02-21T03:20:59.748Z,13.90
2019-02-21T03:23:30.208Z,13.20
2019-02-21T03:26:00.769Z,13.80
2019-02-21T03:28:31.266Z,13.67
2019-02-21T03:31:01.772Z,14.50
2019-02-21T03:33:32.234Z,14.43
2019-02-21T03:36:02.772Z,14.60
2019-02-21T03:38:35.092Z,15.13
2019-02-21T03:41:05.671Z,14.50
2019-02-21T03:43:36.190Z,16.47
2019-02-21T03:46:06.641Z,15.97
2019-02-21T03:48:37.112Z,14.90
2019-02-21T03:51:07.591Z,14.90
2019-02-21T03:53:38.078Z,15.73
2019-02-21T03:56:08.581Z,15.33
2019-02-21T03:58:39.096Z,14.50
2019-02-21T04:01:09.750Z,15.30
2019-02-21T04:03:40.240Z,14.40
2019-02-21T04:06:10.822Z,14.60
2019-02-21T04:08:41.335Z,15.83
2019-02-21T04:11:11.788Z,15.77
2019-02-21T04:13:42.254Z,15.87
2019-02-21T04:16:12.780Z,16.07
2019-02-21T04:18:43.303Z,17.30
2019-02-21T04:21:13.769Z,16.47
2019-02-21T04:23:44.238Z,15.77
2019-02-21T04:26:14.711Z,16.57
2019-02-21T04:28:45.896Z,15.77
2019-02-21T04:31:16.464Z,16.03
2019-02-21T04:33:46.926Z,16.17
2019-02-21T04:36:17.440Z,16.27
2019-02-21T04:38:47.901Z,16.03
2019-02-21T04:41:18.503Z,16.77
2019-02-21T04:43:49.007Z,16.57
2019-02-21T04:46:19.510Z,17.17
2019-02-21T04:48:49.958Z,16.97
2019-02-21T04:51:20.427Z,17.30
2019-02-21T04:53:50.934Z,17.93
2019-02-21T04:56:21.457Z,18.23
2019-02-21T04:58:51.933Z,17.30
2019-02-21T05:01:22.456Z,18.37
2019-02-21T05:03:52.925Z,18.93
2019-02-21T05:06:23.381Z,18.70
2019-02-21T05:08:53.894Z,17.70
2019-02-21T05:11:24.486Z,21.20
2019-02-21T05:13:54.980Z,19.43
2019-02-21T05:16:25.505Z,20.87
2019-02-21T05:18:55.962Z,18.63
2019-02-21T05:21:26.443Z,18.63
2019-02-21T05:23:56.963Z,19.43
2019-02-21T05:26:35.333Z,19.30
2019-02-21T05:29:07.549Z,19.17
2019-02-21T05:32:02.807Z,19.10
2019-02-21T05:34:43.664Z,19.97
2019-02-21T05:37:24.692Z,19.40
2019-02-21T05:40:14.004Z,19.67
2019-02-21T05:43:01.959Z,18.40
2019-02-21T05:46:06.537Z,19.00
2019-02-21T05:48:54.468Z,18.80
2019-02-21T05:51:38.821Z,20.33
2019-02-21T05:54:37.012Z,19.53
2019-02-21T05:57:29.496Z,23.30
2019-02-21T06:00:27.696Z,20.30
2019-02-21T06:03:35.625Z,19.03
2019-02-21T06:06:13.629Z,18.97
2019-02-21T06:08:54.704Z,20.93
2019-02-21T06:11:41.502Z,20.80
2019-02-21T06:14:23.527Z,20.27
2019-02-21T06:17:11.599Z,18.53
2019-02-21T06:19:50.955Z,19.47
2019-02-21T06:22:37.167Z,18.30
2019-02-21T06:25:16.886Z,20.37
2019-02-21T06:27:55.441Z,18.60
2019-02-21T06:30:31.422Z,19.10
2019-02-21T06:33:05.296Z,17.73
2019-02-21T06:35:34.250Z,18.73
2019-02-21T06:38:04.824Z,17.77
2019-02-21T06:40:36.534Z,17.63
2019-02-21T06:43:07.285Z,18.53
2019-02-21T06:45:37.770Z,17.10
2019-02-21T06:48:08.360Z,16.77
2019-02-21T06:50:38.937Z,17.10
2019-02-21T06:53:09.439Z,17.33
2019-02-21T06:55:39.925Z,18.13
2019-02-21T06:58:10.486Z,16.77
2019-02-21T07:00:40.942Z,18.43
2019-02-21T07:03:15.733Z,18.37
2019-02-21T07:05:44.797Z,17.83
2019-02-21T07:08:15.314Z,17.50
2019-02-21T07:10:45.870Z,18.53
2019-02-21T07:13:25.977Z,16.63
2019-02-21T07:15:48.775Z,16.77
2019-02-21T07:18:19.293Z,16.23
2019-02-21T07:20:49.754Z,15.93
2019-02-21T07:23:20.585Z,15.10
2019-02-21T07:25:54.419Z,16.97
2019-02-21T07:28:27.621Z,15.97
2019-02-21T07:30:57.090Z,15.57
2019-02-21T07:33:28.962Z,15.50
2019-02-21T07:35:59.572Z,15.13
2019-02-21T07:38:30.126Z,15.90
2019-02-21T07:41:00.751Z,16.00
2019-02-21T07:43:31.312Z,15.73
2019-02-21T07:46:01.900Z,16.47
2019-02-21T07:48:32.398Z,15.67
2019-02-21T07:51:02.942Z,15.87
2019-02-21T07:53:33.407Z,14.27
2019-02-21T07:56:03.932Z,14.80
2019-02-21T07:58:34.435Z,17.67
2019-02-21T08:01:05.263Z,14.17
2019-02-21T08:03:43.831Z,15.73
2019-02-21T08:06:07.943Z,14.83
2019-02-21T08:08:38.511Z,14.47
2019-02-21T08:11:09.317Z,13.87
2019-02-21T08:13:39.946Z,14.97
2019-02-21T08:16:12.398Z,15.10
2019-02-21T08:18:42.633Z,13.00
2019-02-21T08:21:13.164Z,14.33
2019-02-21T08:23:50.678Z,11.47
2019-02-21T08:26:15.864Z,11.27
2019-02-21T08:28:46.367Z,12.27
2019-02-21T08:31:17.022Z,12.47
2019-02-21T08:34:04.976Z,12.40
2019-02-21T08:36:35.954Z,13.13
2019-02-21T08:39:09.487Z,13.07
2019-02-21T08:41:40.033Z,12.90
2019-02-21T08:44:10.510Z,14.83
2019-02-21T08:46:40.982Z,14.23
2019-02-21T08:49:11.510Z,14.50
2019-02-21T08:51:42.007Z,15.10
2019-02-21T08:54:12.523Z,12.50
2019-02-21T08:56:42.994Z,13.80
2019-02-21T08:59:13.647Z,13.13
2019-02-21T09:01:44.801Z,12.33
2019-02-21T09:04:26.805Z,11.50
2019-02-21T09:06:47.601Z,13.47
2019-02-21T09:09:18.293Z,12.83
2019-02-21T09:11:48.924Z,14.07
2019-02-21T09:14:19.412Z,13.67
2019-02-21T09:16:49.945Z,12.37
2019-02-21T09:19:20.445Z,11.77
2019-02-21T09:21:53.418Z,12.03
2019-02-21T09:24:37.748Z,12.13
2019-02-21T09:27:00.214Z,12.17
2019-02-21T09:29:42.659Z,11.57
2019-02-21T09:32:13.163Z,10.70
2019-02-21T09:34:43.809Z,12.73
2019-02-21T09:37:14.348Z,11.23
2019-02-21T09:39:44.833Z,11.47
2019-02-21T09:42:15.361Z,10.80
2019-02-21T09:44:45.848Z,10.83
2019-02-21T09:47:16.388Z,10.70
2019-02-21T09:49:46.993Z,10.17
2019-02-21T09:52:17.496Z,11.60
2019-02-21T09:54:48.123Z,11.53
2019-02-21T09:57:18.628Z,9.80
2019-02-21T09:59:49.491Z,9.93
2019-02-21T10:02:20.044Z,10.73
2019-02-21T10:04:50.645Z,11.17
2019-02-21T10:07:21.220Z,11.53
2019-02-21T10:09:51.741Z,10.07
2019-02-21T10:12:22.251Z,9.50
2019-02-21T10:14:52.715Z,10.70
2019-02-21T10:17:23.232Z,11.07
2019-02-21T10:19:53.750Z,8.67
2019-02-21T10:22:26.093Z,8.93
2019-02-21T10:24:57.066Z,9.33
2019-02-21T10:27:27.666Z,9.63
2019-02-21T10:29:59.351Z,9.17
2019-02-21T10:32:29.894Z,9.37
2019-02-21T10:35:00.391Z,9.13
2019-02-21T10:37:31.000Z,10.93
2019-02-21T10:40:01.519Z,9.20
2019-02-21T10:42:31.997Z,9.13
2019-02-21T10:45:03.497Z,9.00
2019-02-21T10:47:34.261Z,10.03
2019-02-21T10:50:05.571Z,8.90
2019-02-21T10:52:36.053Z,8.90
2019-02-21T10:55:06.991Z,9.80
2019-02-21T10:57:37.861Z,9.30
2019-02-21T11:00:12.496Z,8.63
2019-02-21T11:02:43.037Z,9.23
2019-02-21T11:05:13.891Z,10.43
2019-02-21T11:07:44.362Z,10.03
2019-02-21T11:10:15.586Z,10.90
2019-02-21T11:12:46.059Z,13.37
2019-02-21T11:15:16.853Z,9.90
2019-02-21T11:17:47.487Z,11.77
2019-02-21T11:20:18.466Z,11.83
2019-02-21T11:22:49.041Z,9.77
2019-02-21T11:25:19.544Z,9.37
2019-02-21T11:27:50.084Z,11.47
2019-02-21T11:30:21.131Z,10.07
2019-02-21T11:32:51.706Z,9.27
2019-02-21T11:35:22.313Z,8.37
2019-02-21T11:37:53.847Z,8.10
2019-02-21T11:40:24.422Z,9.00
2019-02-21T11:42:54.928Z,9.50
2019-02-21T11:45:25.457Z,8.63
2019-02-21T11:47:55.960Z,8.27
2019-02-21T11:50:26.531Z,7.90
2019-02-21T11:52:56.983Z,9.60
2019-02-21T11:55:27.511Z,8.70
2019-02-21T11:57:58.024Z,8.80
2019-02-21T12:00:28.724Z,7.53
2019-02-21T12:03:00.513Z,8.30
2019-02-21T12:05:31.923Z,7.87
2019-02-21T12:08:02.807Z,6.83
2019-02-21T12:10:33.424Z,9.47
2019-02-21T12:13:03.966Z,7.80
2019-02-21T12:15:34.440Z,7.40
2019-02-21T12:18:05.186Z,7.77
2019-02-21T12:20:35.773Z,7.80
2019-02-21T12:23:06.571Z,8.10
2019-02-21T12:25:37.164Z,8.07
2019-02-21T12:28:07.653Z,8.70
2019-02-21T12:30:38.217Z,8.10
2019-02-21T12:33:08.725Z,7.70
2019-02-21T12:35:39.205Z,7.43
2019-02-21T12:38:09.719Z,8.03
2019-02-21T12:40:40.295Z,7.93
2019-02-21T12:43:10.798Z,8.03
2019-02-21T12:45:41.337Z,7.37
2019-02-21T12:48:11.863Z,8.10
2019-02-21T12:50:44.496Z,7.83
2019-02-21T12:53:14.694Z,8.23
2019-02-21T12:55:45.162Z,7.87
2019-02-21T12:58:16.072Z,8.00
2019-02-21T13:00:46.718Z,8.67
2019-02-21T13:03:17.241Z,9.73
2019-02-21T13:05:48.704Z,7.53
2019-02-21T13:08:19.262Z,8.60
2019-02-21T13:10:49.825Z,8.57
2019-02-21T13:13:20.332Z,9.70
2019-02-21T13:15:50.955Z,8.30
2019-02-21T13:18:21.471Z,8.37
2019-02-21T13:20:51.989Z,8.07
2019-02-21T13:23:22.453Z,7.80
2019-02-21T13:25:52.974Z,8.00
2019-02-21T13:28:23.486Z,7.87
2019-02-21T13:30:53.958Z,7.17
2019-02-21T13:33:24.441Z,7.83
2019-02-21T13:35:54.982Z,7.83
2019-02-21T13:38:25.488Z,7.33
2019-02-21T13:40:55.999Z,8.10
2019-02-21T13:43:26.510Z,7.80
2019-02-21T13:45:56.984Z,8.20
2019-02-21T13:48:27.533Z,8.43
2019-02-21T13:50:58.051Z,10.30
2019-02-21T13:53:28.561Z,8.97
2019-02-21T13:55:59.036Z,8.80
2019-02-21T13:58:29.554Z,7.97
2019-02-21T14:01:00.095Z,9.33
2019-02-21T14:03:30.617Z,8.10
2019-02-21T14:06:03.825Z,9.40
2019-02-21T14:08:33.304Z,9.13
2019-02-21T14:11:03.853Z,7.60
2019-02-21T14:13:34.371Z,8.60
2019-02-21T14:16:04.981Z,8.00
2019-02-21T14:18:35.487Z,8.67
2019-02-21T14:21:06.079Z,7.60
2019-02-21T14:23:36.574Z,9.53
2019-02-21T14:26:07.089Z,8.10
2019-02-21T14:28:37.623Z,9.27
2019-02-21T14:31:08.147Z,8.97
2019-02-21T14:33:38.788Z,9.47
2019-02-21T14:36:15.518Z,9.30
2019-02-21T14:38:41.534Z,9.20
2019-02-21T14:41:12.171Z,9.03
2019-02-21T14:43:42.700Z,8.77
2019-02-21T14:46:13.231Z,8.53
2019-02-21T14:48:43.700Z,8.90
2019-02-21T14:51:14.201Z,8.63
2019-02-21T14:53:45.040Z,10.10
2019-02-21T14:56:15.622Z,9.37
2019-02-21T14:58:46.151Z,8.60
2019-02-21T15:01:16.723Z,10.03
2019-02-21T15:03:47.220Z,8.80
2019-02-21T15:06:26.684Z,8.00
2019-02-21T15:08:49.971Z,8.90
2019-02-21T15:11:20.491Z,9.17
2019-02-21T15:13:51.121Z,9.23
2019-02-21T15:16:21.603Z,9.60
2019-02-21T15:18:52.105Z,8.90
2019-02-21T15:21:22.655Z,9.33
2019-02-21T15:23:53.115Z,10.10
2019-02-21T15:26:23.637Z,12.53
2019-02-21T15:28:54.180Z,10.23
2019-02-21T15:31:24.677Z,8.80
2019-02-21T15:33:55.290Z,9.40
2019-02-21T15:36:25.778Z,8.87
2019-02-21T15:38:56.256Z,9.30
2019-02-21T15:41:26.774Z,9.90
2019-02-21T15:43:57.309Z,9.90
2019-02-21T15:46:27.767Z,9.67
2019-02-21T15:48:58.302Z,9.93
2019-02-21T15:51:28.767Z,10.20
2019-02-21T15:53:59.277Z,11.23
2019-02-21T15:56:29.746Z,11.03
2019-02-21T15:59:00.262Z,11.63
2019-02-21T16:01:30.747Z,12.67
2019-02-21T16:04:01.257Z,14.27
2019-02-21T16:06:31.783Z,14.20
2019-02-21T16:09:02.359Z,14.13
2019-02-21T16:11:32.847Z,13.90
2019-02-21T16:14:03.770Z,14.17
2019-02-21T16:16:34.350Z,13.50
2019-02-21T16:19:04.841Z,12.27
2019-02-21T16:21:35.297Z,13.83
2019-02-21T16:24:05.796Z,15.10
2019-02-21T16:26:36.269Z,14.33
2019-02-21T16:29:06.782Z,14.87
2019-02-21T16:31:37.307Z,14.97
2019-02-21T16:34:09.262Z,15.30
2019-02-21T16:36:39.975Z,14.80
2019-02-21T16:39:10.492Z,16.03
2019-02-21T16:41:40.998Z,16.13
2019-02-21T16:44:11.477Z,16.33
2019-02-21T16:46:41.981Z,17.60
2019-02-21T16:49:12.494Z,17.10
2019-02-21T16:51:42.974Z,18.17
2019-02-21T16:54:13.477Z,17.93
2019-02-21T16:56:43.949Z,17.33
2019-02-21T16:59:14.463Z,18.37
2019-02-21T17:01:44.942Z,17.70
2019-02-21T17:04:15.448Z,16.40
2019-02-21T17:06:45.962Z,14.77
2019-02-21T17:09:16.554Z,14.77
2019-02-21T17:11:47.045Z,13.80
2019-02-21T17:14:17.567Z,13.03
2019-02-21T17:16:48.037Z,12.53
2019-02-21T17:19:18.538Z,12.40
2019-02-21T17:21:48.994Z,12.30
2019-02-21T17:24:19.483Z,11.83
2019-02-21T17:26:49.943Z,11.27
2019-02-21T17:29:20.457Z,10.50
2019-02-21T17:31:50.983Z,11.00
2019-02-21T17:34:21.493Z,11.77
2019-02-21T17:36:51.983Z,11.30
2019-02-21T17:39:22.449Z,11.13
2019-02-21T17:41:52.969Z,11.30
2019-02-21T17:44:23.435Z,11.17
2019-02-21T17:46:54.071Z,11.57
2019-02-21T17:49:24.536Z,11.10
2019-02-21T17:51:55.105Z,11.10
2019-02-21T17:54:27.620Z,11.03
2019-02-21T17:56:57.826Z,11.30
2019-02-21T17:59:28.295Z,11.33
2019-02-21T18:01:58.763Z,10.80
2019-02-21T18:04:29.267Z,11.20
2019-02-21T18:06:59.735Z,12.03
2019-02-21T18:09:30.203Z,11.33
2019-02-21T18:12:00.714Z,10.13
2019-02-21T18:14:31.201Z,11.50
2019-02-21T18:17:01.663Z,11.00
2019-02-21T18:19:32.188Z,10.47
2019-02-21T18:22:02.734Z,11.87
2019-02-21T18:24:33.199Z,11.97
2019-02-21T18:27:03.661Z,11.97
2019-02-21T18:29:34.180Z,11.57
2019-02-21T18:32:04.667Z,11.47
2019-02-21T18:34:35.178Z,11.27
2019-02-21T18:37:05.846Z,11.00
2019-02-21T18:39:36.366Z,11.33
2019-02-21T18:42:06.915Z,11.60
2019-02-21T18:44:37.427Z,12.00
2019-02-21T18:47:08.015Z,10.07
2019-02-21T18:49:38.518Z,10.50
2019-02-21T18:52:09.087Z,10.20
2019-02-21T18:54:39.643Z,11.57
2019-02-21T18:57:12.263Z,9.87
2019-02-21T18:59:42.359Z,10.13
2019-02-21T19:02:12.926Z,10.10
2019-02-21T19:04:43.437Z,10.13
2019-02-21T19:07:13.916Z,11.03
2019-02-21T19:09:44.436Z,10.17
2019-02-21T19:12:14.969Z,10.83
2019-02-21T19:14:45.441Z,10.50
2019-02-21T19:17:16.009Z,10.63
2019-02-21T19:19:46.471Z,10.33
2019-02-21T19:22:17.083Z,10.57
2019-02-21T19:24:47.603Z,10.80
2019-02-21T19:27:18.307Z,10.70
2019-02-21T19:29:48.874Z,9.87
2019-02-21T19:32:19.511Z,10.10
2019-02-21T19:34:50.113Z,10.17
2019-02-21T19:37:20.681Z,10.83
2019-02-21T19:39:51.390Z,11.13
2019-02-21T19:42:21.845Z,11.67
2019-02-21T19:44:52.422Z,11.43
2019-02-21T19:47:22.891Z,12.33
2019-02-21T19:49:53.398Z,13.20
2019-02-21T19:52:23.865Z,14.40
2019-02-21T19:54:54.492Z,13.23
2019-02-21T19:57:28.202Z,13.13
2019-02-21T19:59:58.709Z,12.50
2019-02-21T20:02:29.229Z,12.57
2019-02-21T20:04:59.852Z,14.87
2019-02-21T20:07:30.465Z,14.67
2019-02-21T20:10:00.965Z,13.23
2019-02-21T20:12:31.670Z,12.83
2019-02-21T20:15:02.218Z,13.90
2019-02-21T20:17:32.780Z,13.37
2019-02-21T20:20:03.246Z,12.80
2019-02-21T20:22:33.746Z,12.93
2019-02-21T20:25:04.315Z,12.90
2019-02-21T20:27:34.834Z,12.20
2019-02-21T20:30:05.558Z,12.40
2019-02-21T20:32:36.016Z,12.03
2019-02-21T20:35:06.834Z,12.10
2019-02-21T20:37:37.535Z,12.50
2019-02-21T20:40:08.374Z,12.53
2019-02-21T20:42:39.011Z,12.07
2019-02-21T20:45:09.974Z,12.03
2019-02-21T20:47:40.468Z,12.27
2019-02-21T20:50:11.204Z,12.17
2019-02-21T20:52:41.825Z,11.70
2019-02-21T20:55:12.763Z,11.30
2019-02-21T20:57:43.262Z,11.63
2019-02-21T21:00:14.363Z,11.33
2019-02-21T21:02:45.170Z,10.97
2019-02-21T21:05:16.034Z,11.43
2019-02-21T21:07:46.549Z,12.07
2019-02-21T21:10:17.679Z,11.33
2019-02-21T21:12:48.193Z,11.40
2019-02-21T21:15:18.876Z,11.77
2019-02-21T21:17:49.331Z,10.80
2019-02-21T21:20:19.798Z,12.07
2019-02-21T21:22:50.292Z,10.67
2019-02-21T21:25:20.810Z,10.80
2019-02-21T21:27:51.282Z,10.30
2019-02-21T21:30:21.790Z,10.20
2019-02-21T21:32:52.274Z,10.00
2019-02-21T21:35:22.783Z,10.93
2019-02-21T21:37:53.240Z,10.07
2019-02-21T21:40:24.253Z,10.73
2019-02-21T21:42:54.757Z,10.33
2019-02-21T21:45:25.316Z,10.10
2019-02-21T21:47:57.353Z,10.47
2019-02-21T21:50:27.969Z,10.73
2019-02-21T21:52:58.481Z,10.07
2019-02-21T21:55:28.941Z,10.60
2019-02-21T21:57:59.437Z,10.77
2019-02-21T22:00:29.893Z,9.83
2019-02-21T22:03:00.357Z,10.40
2019-02-21T22:05:30.880Z,9.80
2019-02-21T22:08:01.354Z,10.03
2019-02-21T22:10:31.977Z,9.70
2019-02-21T22:13:02.453Z,9.47
2019-02-21T22:15:33.066Z,8.83
2019-02-21T22:18:03.550Z,9.87
2019-02-21T22:20:34.059Z,9.83
2019-02-21T22:23:04.568Z,9.43
2019-02-21T22:25:37.246Z,9.87
2019-02-21T22:28:07.269Z,10.00
2019-02-21T22:30:37.804Z,10.43
2019-02-21T22:33:08.286Z,10.27
2019-02-21T22:35:38.762Z,10.07
2019-02-21T22:38:09.278Z,10.03
2019-02-21T22:40:39.755Z,10.60
2019-02-21T22:43:10.277Z,10.33
2019-02-21T22:45:40.964Z,10.07
2019-02-21T22:48:11.481Z,10.87
2019-02-21T22:50:41.972Z,11.43
2019-02-21T22:53:12.504Z,10.37
2019-02-21T22:55:42.982Z,11.37
2019-02-21T22:58:13.459Z,11.67
2019-02-21T23:01:12.597Z,11.73
2019-02-21T23:03:49.376Z,11.63
2019-02-21T23:07:03.871Z,11.53
2019-02-21T23:09:34.633Z,11.70
2019-02-21T23:12:05.658Z,10.50
2019-02-21T23:14:43.364Z,11.20
2019-02-21T23:17:14.387Z,11.67
2019-02-21T23:19:44.851Z,10.40
2019-02-21T23:22:17.953Z,11.80
2019-02-21T23:24:48.438Z,11.30
2019-02-21T23:27:18.939Z,11.53
2019-02-21T23:29:49.426Z,11.17
2019-02-21T23:32:19.892Z,11.17
2019-02-21T23:34:51.273Z,11.37
2019-02-21T23:37:21.733Z,11.57
2019-02-21T23:39:52.238Z,11.17
2019-02-21T23:42:22.821Z,11.50
2019-02-21T23:44:53.330Z,11.87
2019-02-21T23:47:23.794Z,12.53
2019-02-21T23:49:54.285Z,12.97
2019-02-21T23:52:24.746Z,13.07
2019-02-21T23:54:57.763Z,13.47
2019-02-21T23:57:27.449Z,14.23
2019-02-21T23:59:57.920Z,14.37
